sensor_id;sensor_type;location;lat;lon;timestamp;P1;durP1;ratioP1;P2;durP2;ratioP2
17917;SDS011;9084;50.956;3.106;2024-02-23T00:01:07;4.13;;;0.77;;
17917;SDS011;9084;50.956;3.106;2024-02-23T00:03:36;3.90;;;0.60;;
17917;SDS011;9084;50.956;3.106;2024-02-23T00:06:04;2.90;;;0.77;;
17917;SDS011;9084;50.956;3.106;2024-02-23T00:08:30;3.43;;;0.70;;
17917;SDS011;9084;50.956;3.106;2024-02-23T00:10:55;2.50;;;0.70;;
17917;SDS011;9084;50.956;3.106;2024-02-23T00:13:23;4.07;;;0.93;;
17917;SDS011;9084;50.956;3.106;2024-02-23T00:15:49;2.27;;;0.50;;
17917;SDS011;9084;50.956;3.106;2024-02-23T00:18:14;1.43;;;0.43;;
17917;SDS011;9084;50.956;3.106;2024-02-23T00:20:41;0.90;;;0.40;;
17917;SDS011;9084;50.956;3.106;2024-02-23T00:23:07;2.03;;;0.60;;
17917;SDS011;9084;50.956;3.106;2024-02-23T00:25:33;5.50;;;0.97;;
17917;SDS011;9084;50.956;3.106;2024-02-23T00:44:49;2.60;;;0.77;;
17917;SDS011;9084;50.956;3.106;2024-02-23T00:47:14;3.70;;;1.17;;
17917;SDS011;9084;50.956;3.106;2024-02-23T00:49:40;3.93;;;1.20;;
17917;SDS011;9084;50.956;3.106;2024-02-23T00:52:08;2.87;;;0.80;;
17917;SDS011;9084;50.956;3.106;2024-02-23T00:54:33;5.30;;;1.03;;
17917;SDS011;9084;50.956;3.106;2024-02-23T00:56:59;4.57;;;1.37;;
17917;SDS011;9084;50.956;3.106;2024-02-23T00:59:25;5.73;;;1.13;;
17917;SDS011;9084;50.956;3.106;2024-02-23T01:01:50;2.00;;;0.70;;
17917;SDS011;9084;50.956;3.106;2024-02-23T01:04:18;4.43;;;1.27;;
17917;SDS011;9084;50.956;3.106;2024-02-23T01:06:46;3.80;;;1.20;;
17917;SDS011;9084;50.956;3.106;2024-02-23T01:09:11;5.13;;;1.23;;
17917;SDS011;9084;50.956;3.106;2024-02-23T01:11:38;3.40;;;0.90;;
17917;SDS011;9084;50.956;3.106;2024-02-23T01:14:06;3.90;;;1.40;;
17917;SDS011;9084;50.956;3.106;2024-02-23T01:16:34;4.13;;;1.30;;
17917;SDS011;9084;50.956;3.106;2024-02-23T01:19:00;5.57;;;1.50;;
17917;SDS011;9084;50.956;3.106;2024-02-23T01:21:27;3.33;;;1.03;;
17917;SDS011;9084;50.956;3.106;2024-02-23T01:23:53;5.40;;;1.33;;
17917;SDS011;9084;50.956;3.106;2024-02-23T01:26:19;3.10;;;0.90;;
17917;SDS011;9084;50.956;3.106;2024-02-23T01:28:45;4.30;;;0.90;;
17917;SDS011;9084;50.956;3.106;2024-02-23T01:31:11;4.67;;;1.57;;
17917;SDS011;9084;50.956;3.106;2024-02-23T01:33:37;4.47;;;1.30;;
17917;SDS011;9084;50.956;3.106;2024-02-23T01:36:06;3.43;;;0.97;;
17917;SDS011;9084;50.956;3.106;2024-02-23T01:38:34;5.03;;;1.30;;
17917;SDS011;9084;50.956;3.106;2024-02-23T01:41:00;6.10;;;1.40;;
17917;SDS011;9084;50.956;3.106;2024-02-23T01:43:26;6.90;;;1.27;;
17917;SDS011;9084;50.956;3.106;2024-02-23T01:45:54;3.47;;;1.23;;
17917;SDS011;9084;50.956;3.106;2024-02-23T01:48:22;6.10;;;1.80;;
17917;SDS011;9084;50.956;3.106;2024-02-23T01:50:50;7.73;;;1.70;;
17917;SDS011;9084;50.956;3.106;2024-02-23T01:53:18;5.20;;;1.40;;
17917;SDS011;9084;50.956;3.106;2024-02-23T01:55:45;4.90;;;1.03;;
17917;SDS011;9084;50.956;3.106;2024-02-23T01:58:12;4.17;;;1.10;;
17917;SDS011;9084;50.956;3.106;2024-02-23T02:00:40;5.13;;;1.33;;
17917;SDS011;9084;50.956;3.106;2024-02-23T02:03:08;4.53;;;1.00;;
17917;SDS011;9084;50.956;3.106;2024-02-23T02:05:35;4.30;;;1.10;;
17917;SDS011;9084;50.956;3.106;2024-02-23T02:08:02;5.23;;;1.10;;
17917;SDS011;9084;50.956;3.106;2024-02-23T02:10:28;3.73;;;1.40;;
17917;SDS011;9084;50.956;3.106;2024-02-23T02:12:54;4.73;;;0.90;;
17917;SDS011;9084;50.956;3.106;2024-02-23T02:15:19;1.67;;;0.60;;
17917;SDS011;9084;50.956;3.106;2024-02-23T02:17:46;3.43;;;0.80;;
17917;SDS011;9084;50.956;3.106;2024-02-23T02:20:13;3.90;;;1.10;;
17917;SDS011;9084;50.956;3.106;2024-02-23T02:22:39;3.50;;;0.77;;
17917;SDS011;9084;50.956;3.106;2024-02-23T02:25:07;3.27;;;1.20;;
17917;SDS011;9084;50.956;3.106;2024-02-23T02:27:33;2.40;;;0.70;;
17917;SDS011;9084;50.956;3.106;2024-02-23T02:29:58;3.60;;;0.93;;
17917;SDS011;9084;50.956;3.106;2024-02-23T02:32:24;4.90;;;1.70;;
17917;SDS011;9084;50.956;3.106;2024-02-23T02:34:52;3.47;;;0.70;;
17917;SDS011;9084;50.956;3.106;2024-02-23T02:37:20;2.07;;;0.60;;
17917;SDS011;9084;50.956;3.106;2024-02-23T02:39:46;2.43;;;0.60;;
17917;SDS011;9084;50.956;3.106;2024-02-23T02:42:12;1.27;;;0.60;;
17917;SDS011;9084;50.956;3.106;2024-02-23T02:44:37;4.33;;;1.17;;
17917;SDS011;9084;50.956;3.106;2024-02-23T02:47:05;3.17;;;0.83;;
17917;SDS011;9084;50.956;3.106;2024-02-23T02:49:33;1.87;;;0.63;;
17917;SDS011;9084;50.956;3.106;2024-02-23T02:51:58;3.47;;;0.80;;
17917;SDS011;9084;50.956;3.106;2024-02-23T02:54:24;3.67;;;1.40;;
17917;SDS011;9084;50.956;3.106;2024-02-23T02:56:50;2.03;;;0.70;;
17917;SDS011;9084;50.956;3.106;2024-02-23T02:59:19;3.13;;;0.80;;
17917;SDS011;9084;50.956;3.106;2024-02-23T03:01:45;5.43;;;0.73;;
17917;SDS011;9084;50.956;3.106;2024-02-23T03:04:14;2.23;;;0.60;;
17917;SDS011;9084;50.956;3.106;2024-02-23T03:06:40;1.83;;;0.77;;
17917;SDS011;9084;50.956;3.106;2024-02-23T03:09:06;2.57;;;0.97;;
17917;SDS011;9084;50.956;3.106;2024-02-23T03:11:32;2.23;;;0.87;;
17917;SDS011;9084;50.956;3.106;2024-02-23T03:13:58;2.30;;;0.60;;
17917;SDS011;9084;50.956;3.106;2024-02-23T03:16:23;1.93;;;0.60;;
17917;SDS011;9084;50.956;3.106;2024-02-23T03:18:52;1.30;;;0.70;;
17917;SDS011;9084;50.956;3.106;2024-02-23T03:21:19;4.07;;;0.90;;
17917;SDS011;9084;50.956;3.106;2024-02-23T03:23:45;2.03;;;0.60;;
17917;SDS011;9084;50.956;3.106;2024-02-23T03:26:10;1.23;;;0.60;;
17917;SDS011;9084;50.956;3.106;2024-02-23T03:28:38;2.57;;;0.90;;
17917;SDS011;9084;50.956;3.106;2024-02-23T03:31:04;3.13;;;0.60;;
17917;SDS011;9084;50.956;3.106;2024-02-23T03:33:32;1.10;;;0.40;;
17917;SDS011;9084;50.956;3.106;2024-02-23T03:35:57;2.03;;;0.70;;
17917;SDS011;9084;50.956;3.106;2024-02-23T03:38:23;3.30;;;0.70;;
17917;SDS011;9084;50.956;3.106;2024-02-23T03:40:49;1.13;;;0.37;;
17917;SDS011;9084;50.956;3.106;2024-02-23T03:43:14;2.50;;;0.87;;
17917;SDS011;9084;50.956;3.106;2024-02-23T03:45:40;2.40;;;0.70;;
17917;SDS011;9084;50.956;3.106;2024-02-23T03:48:08;1.13;;;0.50;;
17917;SDS011;9084;50.956;3.106;2024-02-23T03:50:36;2.87;;;0.93;;
17917;SDS011;9084;50.956;3.106;2024-02-23T03:53:02;2.40;;;0.70;;
17917;SDS011;9084;50.956;3.106;2024-02-23T03:55:28;3.27;;;0.90;;
17917;SDS011;9084;50.956;3.106;2024-02-23T03:57:54;2.10;;;0.90;;
17917;SDS011;9084;50.956;3.106;2024-02-23T04:00:20;2.30;;;0.87;;
17917;SDS011;9084;50.956;3.106;2024-02-23T04:02:48;2.40;;;0.90;;
17917;SDS011;9084;50.956;3.106;2024-02-23T04:05:14;2.63;;;0.90;;
17917;SDS011;9084;50.956;3.106;2024-02-23T04:07:39;4.37;;;1.50;;
17917;SDS011;9084;50.956;3.106;2024-02-23T04:10:05;3.53;;;1.17;;
17917;SDS011;9084;50.956;3.106;2024-02-23T04:12:34;2.23;;;0.90;;
17917;SDS011;9084;50.956;3.106;2024-02-23T04:14:59;2.07;;;0.97;;
17917;SDS011;9084;50.956;3.106;2024-02-23T04:17:27;4.47;;;1.30;;
17917;SDS011;9084;50.956;3.106;2024-02-23T04:19:53;4.70;;;1.67;;
17917;SDS011;9084;50.956;3.106;2024-02-23T04:22:19;3.03;;;0.97;;
17917;SDS011;9084;50.956;3.106;2024-02-23T04:24:44;2.00;;;0.73;;
17917;SDS011;9084;50.956;3.106;2024-02-23T04:27:10;3.83;;;1.07;;
17917;SDS011;9084;50.956;3.106;2024-02-23T04:29:35;4.33;;;1.10;;
17917;SDS011;9084;50.956;3.106;2024-02-23T04:32:01;4.30;;;1.37;;
17917;SDS011;9084;50.956;3.106;2024-02-23T04:34:30;3.70;;;1.37;;
17917;SDS011;9084;50.956;3.106;2024-02-23T04:36:56;1.67;;;0.67;;
17917;SDS011;9084;50.956;3.106;2024-02-23T04:39:22;1.70;;;0.67;;
17917;SDS011;9084;50.956;3.106;2024-02-23T04:41:50;4.37;;;1.00;;
17917;SDS011;9084;50.956;3.106;2024-02-23T04:44:15;3.57;;;1.30;;
17917;SDS011;9084;50.956;3.106;2024-02-23T04:46:41;4.73;;;1.13;;
17917;SDS011;9084;50.956;3.106;2024-02-23T04:49:07;3.93;;;1.20;;
17917;SDS011;9084;50.956;3.106;2024-02-23T04:51:33;2.53;;;1.17;;
17917;SDS011;9084;50.956;3.106;2024-02-23T04:54:01;5.07;;;1.23;;
17917;SDS011;9084;50.956;3.106;2024-02-23T04:56:26;6.13;;;1.13;;
17917;SDS011;9084;50.956;3.106;2024-02-23T04:58:52;3.63;;;1.23;;
17917;SDS011;9084;50.956;3.106;2024-02-23T05:01:20;3.70;;;1.00;;
17917;SDS011;9084;50.956;3.106;2024-02-23T05:03:48;3.37;;;0.90;;
17917;SDS011;9084;50.956;3.106;2024-02-23T05:06:16;3.73;;;0.70;;
17917;SDS011;9084;50.956;3.106;2024-02-23T05:08:41;3.43;;;0.97;;
17917;SDS011;9084;50.956;3.106;2024-02-23T05:11:07;3.03;;;1.23;;
17917;SDS011;9084;50.956;3.106;2024-02-23T05:13:32;3.50;;;0.97;;
17917;SDS011;9084;50.956;3.106;2024-02-23T05:15:58;5.47;;;1.53;;
17917;SDS011;9084;50.956;3.106;2024-02-23T05:18:24;2.87;;;0.87;;
17917;SDS011;9084;50.956;3.106;2024-02-23T05:20:50;3.27;;;1.27;;
17917;SDS011;9084;50.956;3.106;2024-02-23T05:23:16;6.70;;;1.27;;
17917;SDS011;9084;50.956;3.106;2024-02-23T05:25:44;2.67;;;1.00;;
17917;SDS011;9084;50.956;3.106;2024-02-23T05:28:09;2.73;;;0.90;;
17917;SDS011;9084;50.956;3.106;2024-02-23T05:30:37;2.27;;;0.83;;
17917;SDS011;9084;50.956;3.106;2024-02-23T05:33:03;4.00;;;0.87;;
17917;SDS011;9084;50.956;3.106;2024-02-23T05:35:29;3.07;;;1.20;;
17917;SDS011;9084;50.956;3.106;2024-02-23T05:37:55;2.10;;;0.90;;
17917;SDS011;9084;50.956;3.106;2024-02-23T05:40:21;2.23;;;0.90;;
17917;SDS011;9084;50.956;3.106;2024-02-23T05:42:46;5.07;;;1.20;;
17917;SDS011;9084;50.956;3.106;2024-02-23T05:45:12;3.17;;;1.10;;
17917;SDS011;9084;50.956;3.106;2024-02-23T05:47:40;2.90;;;1.00;;
17917;SDS011;9084;50.956;3.106;2024-02-23T05:50:08;3.00;;;1.03;;
17917;SDS011;9084;50.956;3.106;2024-02-23T05:52:34;3.83;;;1.07;;
17917;SDS011;9084;50.956;3.106;2024-02-23T05:55:01;3.10;;;1.17;;
17917;SDS011;9084;50.956;3.106;2024-02-23T05:57:28;4.30;;;1.40;;
17917;SDS011;9084;50.956;3.106;2024-02-23T05:59:57;5.93;;;1.03;;
17917;SDS011;9084;50.956;3.106;2024-02-23T06:02:24;4.63;;;1.07;;
17917;SDS011;9084;50.956;3.106;2024-02-23T06:04:50;7.07;;;1.60;;
17917;SDS011;9084;50.956;3.106;2024-02-23T06:07:18;3.87;;;0.80;;
17917;SDS011;9084;50.956;3.106;2024-02-23T06:09:46;4.33;;;1.03;;
17917;SDS011;9084;50.956;3.106;2024-02-23T06:12:14;4.63;;;1.20;;
17917;SDS011;9084;50.956;3.106;2024-02-23T06:14:42;5.03;;;1.53;;
17917;SDS011;9084;50.956;3.106;2024-02-23T06:17:08;4.87;;;1.50;;
17917;SDS011;9084;50.956;3.106;2024-02-23T06:19:34;5.07;;;1.20;;
17917;SDS011;9084;50.956;3.106;2024-02-23T06:22:02;5.10;;;1.30;;
17917;SDS011;9084;50.956;3.106;2024-02-23T06:24:27;4.20;;;1.53;;
17917;SDS011;9084;50.956;3.106;2024-02-23T06:26:55;2.50;;;1.23;;
17917;SDS011;9084;50.956;3.106;2024-02-23T06:29:24;3.30;;;1.00;;
17917;SDS011;9084;50.956;3.106;2024-02-23T06:31:50;3.50;;;1.00;;
17917;SDS011;9084;50.956;3.106;2024-02-23T06:34:18;4.20;;;1.40;;
17917;SDS011;9084;50.956;3.106;2024-02-23T06:36:44;3.67;;;1.10;;
17917;SDS011;9084;50.956;3.106;2024-02-23T06:39:12;3.93;;;1.40;;
17917;SDS011;9084;50.956;3.106;2024-02-23T06:41:40;4.67;;;1.27;;
17917;SDS011;9084;50.956;3.106;2024-02-23T06:44:05;5.53;;;1.97;;
17917;SDS011;9084;50.956;3.106;2024-02-23T06:46:31;5.43;;;1.17;;
17917;SDS011;9084;50.956;3.106;2024-02-23T06:48:57;3.00;;;0.90;;
17917;SDS011;9084;50.956;3.106;2024-02-23T06:51:22;5.03;;;1.13;;
17917;SDS011;9084;50.956;3.106;2024-02-23T06:53:48;3.30;;;1.00;;
17917;SDS011;9084;50.956;3.106;2024-02-23T06:56:14;4.50;;;1.27;;
17917;SDS011;9084;50.956;3.106;2024-02-23T06:58:40;3.17;;;1.27;;
17917;SDS011;9084;50.956;3.106;2024-02-23T07:01:05;4.87;;;1.00;;
17917;SDS011;9084;50.956;3.106;2024-02-23T07:03:36;2.73;;;1.00;;
17917;SDS011;9084;50.956;3.106;2024-02-23T07:06:02;8.10;;;1.10;;
17917;SDS011;9084;50.956;3.106;2024-02-23T07:08:28;3.70;;;1.37;;
17917;SDS011;9084;50.956;3.106;2024-02-23T07:10:55;3.80;;;1.00;;
17917;SDS011;9084;50.956;3.106;2024-02-23T07:13:20;5.00;;;1.00;;
17917;SDS011;9084;50.956;3.106;2024-02-23T07:15:46;4.30;;;1.20;;
17917;SDS011;9084;50.956;3.106;2024-02-23T07:18:12;5.33;;;1.33;;
17917;SDS011;9084;50.956;3.106;2024-02-23T07:20:38;2.40;;;0.80;;
17917;SDS011;9084;50.956;3.106;2024-02-23T07:23:06;5.00;;;1.20;;
17917;SDS011;9084;50.956;3.106;2024-02-23T07:25:32;2.53;;;0.87;;
17917;SDS011;9084;50.956;3.106;2024-02-23T07:27:58;5.00;;;1.73;;
17917;SDS011;9084;50.956;3.106;2024-02-23T07:30:24;3.17;;;0.87;;
17917;SDS011;9084;50.956;3.106;2024-02-23T07:32:52;3.13;;;1.20;;
17917;SDS011;9084;50.956;3.106;2024-02-23T07:35:20;2.60;;;0.80;;
17917;SDS011;9084;50.956;3.106;2024-02-23T07:37:48;4.43;;;1.03;;
17917;SDS011;9084;50.956;3.106;2024-02-23T07:40:14;3.40;;;1.00;;
17917;SDS011;9084;50.956;3.106;2024-02-23T07:42:39;2.63;;;0.90;;
17917;SDS011;9084;50.956;3.106;2024-02-23T07:45:06;3.17;;;0.80;;
17917;SDS011;9084;50.956;3.106;2024-02-23T07:47:32;3.13;;;1.20;;
17917;SDS011;9084;50.956;3.106;2024-02-23T07:50:00;2.30;;;0.70;;
17917;SDS011;9084;50.956;3.106;2024-02-23T07:52:26;2.23;;;0.90;;
17917;SDS011;9084;50.956;3.106;2024-02-23T07:54:52;5.00;;;0.93;;
17917;SDS011;9084;50.956;3.106;2024-02-23T07:57:21;3.67;;;1.30;;
17917;SDS011;9084;50.956;3.106;2024-02-23T07:59:47;3.17;;;1.07;;
17917;SDS011;9084;50.956;3.106;2024-02-23T08:02:14;3.63;;;1.20;;
17917;SDS011;9084;50.956;3.106;2024-02-23T08:04:42;3.33;;;0.80;;
17917;SDS011;9084;50.956;3.106;2024-02-23T08:07:08;4.43;;;1.20;;
17917;SDS011;9084;50.956;3.106;2024-02-23T08:09:36;2.30;;;0.70;;
17917;SDS011;9084;50.956;3.106;2024-02-23T08:12:02;1.07;;;0.50;;
17917;SDS011;9084;50.956;3.106;2024-02-23T08:14:30;4.20;;;0.83;;
17917;SDS011;9084;50.956;3.106;2024-02-23T08:16:58;2.70;;;0.90;;
17917;SDS011;9084;50.956;3.106;2024-02-23T08:19:24;2.20;;;0.70;;
17917;SDS011;9084;50.956;3.106;2024-02-23T08:21:50;7.03;;;1.13;;
17917;SDS011;9084;50.956;3.106;2024-02-23T08:24:15;2.23;;;0.77;;
17917;SDS011;9084;50.956;3.106;2024-02-23T08:26:43;1.63;;;0.93;;
17917;SDS011;9084;50.956;3.106;2024-02-23T08:29:09;2.67;;;1.07;;
17917;SDS011;9084;50.956;3.106;2024-02-23T08:31:37;2.53;;;0.70;;
17917;SDS011;9084;50.956;3.106;2024-02-23T08:34:07;1.83;;;0.97;;
17917;SDS011;9084;50.956;3.106;2024-02-23T08:36:33;1.80;;;0.70;;
17917;SDS011;9084;50.956;3.106;2024-02-23T08:39:01;2.73;;;1.07;;
17917;SDS011;9084;50.956;3.106;2024-02-23T08:41:29;3.30;;;0.97;;
17917;SDS011;9084;50.956;3.106;2024-02-23T08:43:55;2.17;;;0.80;;
17917;SDS011;9084;50.956;3.106;2024-02-23T08:46:23;2.63;;;0.50;;
17917;SDS011;9084;50.956;3.106;2024-02-23T08:48:51;3.57;;;0.90;;
17917;SDS011;9084;50.956;3.106;2024-02-23T08:51:16;1.93;;;0.63;;
17917;SDS011;9084;50.956;3.106;2024-02-23T08:53:44;1.07;;;0.53;;
17917;SDS011;9084;50.956;3.106;2024-02-23T08:56:10;4.73;;;0.70;;
17917;SDS011;9084;50.956;3.106;2024-02-23T08:58:41;1.33;;;0.50;;
17917;SDS011;9084;50.956;3.106;2024-02-23T09:01:06;2.63;;;0.70;;
17917;SDS011;9084;50.956;3.106;2024-02-23T09:03:34;1.57;;;0.90;;
17917;SDS011;9084;50.956;3.106;2024-02-23T09:05:59;1.43;;;0.30;;
17917;SDS011;9084;50.956;3.106;2024-02-23T09:08:25;2.10;;;0.40;;
17917;SDS011;9084;50.956;3.106;2024-02-23T09:10:51;1.53;;;0.20;;
17917;SDS011;9084;50.956;3.106;2024-02-23T09:13:16;1.00;;;0.20;;
17917;SDS011;9084;50.956;3.106;2024-02-23T09:15:42;0.83;;;0.20;;
17917;SDS011;9084;50.956;3.106;2024-02-23T09:18:10;0.63;;;0.30;;
17917;SDS011;9084;50.956;3.106;2024-02-23T09:20:38;2.40;;;0.60;;
17917;SDS011;9084;50.956;3.106;2024-02-23T09:23:04;0.83;;;0.33;;
17917;SDS011;9084;50.956;3.106;2024-02-23T09:25:29;1.70;;;0.53;;
17917;SDS011;9084;50.956;3.106;2024-02-23T09:27:58;2.27;;;0.60;;
17917;SDS011;9084;50.956;3.106;2024-02-23T09:30:23;4.20;;;0.60;;
17917;SDS011;9084;50.956;3.106;2024-02-23T09:32:49;1.80;;;0.57;;
17917;SDS011;9084;50.956;3.106;2024-02-23T09:35:17;1.57;;;0.50;;
17917;SDS011;9084;50.956;3.106;2024-02-23T09:37:43;2.23;;;0.47;;
17917;SDS011;9084;50.956;3.106;2024-02-23T09:40:09;1.55;;;0.57;;
17917;SDS011;9084;50.956;3.106;2024-02-23T09:42:35;2.37;;;1.10;;
17917;SDS011;9084;50.956;3.106;2024-02-23T09:45:03;4.17;;;1.13;;
17917;SDS011;9084;50.956;3.106;2024-02-23T09:47:33;3.33;;;1.10;;
17917;SDS011;9084;50.956;3.106;2024-02-23T09:49:59;1.33;;;0.40;;
17917;SDS011;9084;50.956;3.106;2024-02-23T09:52:28;2.95;;;0.40;;
17917;SDS011;9084;50.956;3.106;2024-02-23T09:54:54;2.83;;;0.77;;
17917;SDS011;9084;50.956;3.106;2024-02-23T09:57:20;4.37;;;0.87;;
17917;SDS011;9084;50.956;3.106;2024-02-23T09:59:48;2.80;;;0.73;;
17917;SDS011;9084;50.956;3.106;2024-02-23T10:02:16;1.95;;;0.65;;
17917;SDS011;9084;50.956;3.106;2024-02-23T10:04:42;4.33;;;0.90;;
17917;SDS011;9084;50.956;3.106;2024-02-23T10:07:09;1.70;;;0.50;;
17917;SDS011;9084;50.956;3.106;2024-02-23T10:09:35;3.08;;;0.65;;
17917;SDS011;9084;50.956;3.106;2024-02-23T10:12:04;2.08;;;0.63;;
17917;SDS011;9084;50.956;3.106;2024-02-23T10:14:30;2.97;;;0.70;;
17917;SDS011;9084;50.956;3.106;2024-02-23T10:16:55;1.33;;;0.47;;
17917;SDS011;9084;50.956;3.106;2024-02-23T10:19:22;2.33;;;0.80;;
17917;SDS011;9084;50.956;3.106;2024-02-23T10:21:53;2.80;;;0.70;;
17917;SDS011;9084;50.956;3.106;2024-02-23T10:24:19;3.40;;;0.50;;
17917;SDS011;9084;50.956;3.106;2024-02-23T10:26:46;0.50;;;0.30;;
17917;SDS011;9084;50.956;3.106;2024-02-23T10:29:12;1.35;;;0.50;;
17917;SDS011;9084;50.956;3.106;2024-02-23T10:31:40;1.20;;;0.30;;
17917;SDS011;9084;50.956;3.106;2024-02-23T10:34:10;1.70;;;0.37;;
17917;SDS011;9084;50.956;3.106;2024-02-23T10:36:42;0.30;;;0.20;;
17917;SDS011;9084;50.956;3.106;2024-02-23T10:39:12;1.37;;;0.30;;
17917;SDS011;9084;50.956;3.106;2024-02-23T10:41:42;1.70;;;0.30;;
17917;SDS011;9084;50.956;3.106;2024-02-23T10:44:20;0.85;;;0.17;;
17917;SDS011;9084;50.956;3.106;2024-02-23T10:46:46;0.90;;;0.37;;
17917;SDS011;9084;50.956;3.106;2024-02-23T10:49:16;0.98;;;0.28;;
17917;SDS011;9084;50.956;3.106;2024-02-23T10:51:50;0.43;;;0.20;;
17917;SDS011;9084;50.956;3.106;2024-02-23T10:54:21;0.00;;;0.00;;
17917;SDS011;9084;50.956;3.106;2024-02-23T10:56:48;1.42;;;0.30;;
17917;SDS011;9084;50.956;3.106;2024-02-23T10:59:15;0.65;;;0.20;;
17917;SDS011;9084;50.956;3.106;2024-02-23T11:01:47;0.57;;;0.43;;
17917;SDS011;9084;50.956;3.106;2024-02-23T11:04:15;0.30;;;0.20;;
17917;SDS011;9084;50.956;3.106;2024-02-23T11:06:42;0.45;;;0.10;;
17917;SDS011;9084;50.956;3.106;2024-02-23T11:09:08;1.17;;;0.20;;
17917;SDS011;9084;50.956;3.106;2024-02-23T11:11:36;1.15;;;0.40;;
17917;SDS011;9084;50.956;3.106;2024-02-23T11:14:03;1.55;;;0.40;;
17917;SDS011;9084;50.956;3.106;2024-02-23T11:16:33;0.95;;;0.20;;
17917;SDS011;9084;50.956;3.106;2024-02-23T11:19:05;1.08;;;0.20;;
17917;SDS011;9084;50.956;3.106;2024-02-23T11:21:35;0.82;;;0.30;;
17917;SDS011;9084;50.956;3.106;2024-02-23T11:24:02;0.50;;;0.17;;
17917;SDS011;9084;50.956;3.106;2024-02-23T11:26:29;1.05;;;0.28;;
17917;SDS011;9084;50.956;3.106;2024-02-23T11:28:58;0.40;;;0.30;;
17917;SDS011;9084;50.956;3.106;2024-02-23T11:31:34;1.50;;;0.40;;
17917;SDS011;9084;50.956;3.106;2024-02-23T11:34:00;1.13;;;0.30;;
17917;SDS011;9084;50.956;3.106;2024-02-23T11:36:30;1.50;;;0.40;;
17917;SDS011;9084;50.956;3.106;2024-02-23T11:38:57;0.70;;;0.40;;
17917;SDS011;9084;50.956;3.106;2024-02-23T11:41:25;0.82;;;0.30;;
17917;SDS011;9084;50.956;3.106;2024-02-23T11:43:52;0.95;;;0.40;;
17917;SDS011;9084;50.956;3.106;2024-02-23T11:46:20;0.45;;;0.30;;
17917;SDS011;9084;50.956;3.106;2024-02-23T11:48:46;0.63;;;0.30;;
17917;SDS011;9084;50.956;3.106;2024-02-23T11:51:20;2.35;;;0.60;;
17917;SDS011;9084;50.956;3.106;2024-02-23T11:53:47;3.00;;;0.63;;
17917;SDS011;9084;50.956;3.106;2024-02-23T11:56:16;1.20;;;0.50;;
17917;SDS011;9084;50.956;3.106;2024-02-23T11:58:43;1.33;;;0.40;;
17917;SDS011;9084;50.956;3.106;2024-02-23T12:01:09;0.77;;;0.40;;
17917;SDS011;9084;50.956;3.106;2024-02-23T12:03:35;0.50;;;0.40;;
17917;SDS011;9084;50.956;3.106;2024-02-23T12:06:04;1.17;;;0.40;;
17917;SDS011;9084;50.956;3.106;2024-02-23T12:08:30;2.38;;;0.55;;
17917;SDS011;9084;50.956;3.106;2024-02-23T12:11:05;1.73;;;0.52;;
17917;SDS011;9084;50.956;3.106;2024-02-23T12:13:33;1.92;;;0.65;;
17917;SDS011;9084;50.956;3.106;2024-02-23T12:16:03;2.15;;;0.65;;
17917;SDS011;9084;50.956;3.106;2024-02-23T12:18:29;3.17;;;0.60;;
17917;SDS011;9084;50.956;3.106;2024-02-23T12:23:42;2.42;;;0.85;;
17917;SDS011;9084;50.956;3.106;2024-02-23T12:26:09;2.00;;;0.60;;
17917;SDS011;9084;50.956;3.106;2024-02-23T12:28:38;2.15;;;0.60;;
17917;SDS011;9084;50.956;3.106;2024-02-23T12:31:04;1.92;;;0.70;;
17917;SDS011;9084;50.956;3.106;2024-02-23T12:33:33;2.78;;;0.93;;
17917;SDS011;9084;50.956;3.106;2024-02-23T12:36:00;3.17;;;0.90;;
17917;SDS011;9084;50.956;3.106;2024-02-23T12:38:27;2.45;;;0.98;;
17917;SDS011;9084;50.956;3.106;2024-02-23T12:40:56;2.95;;;0.80;;
17917;SDS011;9084;50.956;3.106;2024-02-23T12:43:22;1.25;;;0.80;;
17917;SDS011;9084;50.956;3.106;2024-02-23T12:45:50;2.30;;;0.60;;
17917;SDS011;9084;50.956;3.106;2024-02-23T12:48:17;2.63;;;0.75;;
17917;SDS011;9084;50.956;3.106;2024-02-23T12:50:44;2.92;;;1.00;;
17917;SDS011;9084;50.956;3.106;2024-02-23T12:56:02;2.55;;;0.68;;
17917;SDS011;9084;50.956;3.106;2024-02-23T12:58:30;3.33;;;1.08;;
17917;SDS011;9084;50.956;3.106;2024-02-23T13:00:59;3.92;;;0.85;;
17917;SDS011;9084;50.956;3.106;2024-02-23T13:03:25;1.92;;;0.73;;
17917;SDS011;9084;50.956;3.106;2024-02-23T13:05:52;3.25;;;1.02;;
17917;SDS011;9084;50.956;3.106;2024-02-23T13:08:24;4.65;;;1.13;;
17917;SDS011;9084;50.956;3.106;2024-02-23T13:10:53;1.57;;;0.83;;
17917;SDS011;9084;50.956;3.106;2024-02-23T13:13:19;2.40;;;0.90;;
17917;SDS011;9084;50.956;3.106;2024-02-23T13:15:46;3.43;;;0.90;;
17917;SDS011;9084;50.956;3.106;2024-02-23T13:18:13;4.38;;;0.90;;
17917;SDS011;9084;50.956;3.106;2024-02-23T13:20:39;2.17;;;0.70;;
17917;SDS011;9084;50.956;3.106;2024-02-23T13:23:08;6.72;;;1.10;;
17917;SDS011;9084;50.956;3.106;2024-02-23T13:25:38;1.83;;;0.70;;
17917;SDS011;9084;50.956;3.106;2024-02-23T13:28:04;4.20;;;1.08;;
17917;SDS011;9084;50.956;3.106;2024-02-23T13:30:31;4.32;;;1.25;;
17917;SDS011;9084;50.956;3.106;2024-02-23T13:32:57;3.23;;;0.73;;
17917;SDS011;9084;50.956;3.106;2024-02-23T13:35:22;2.10;;;0.68;;
17917;SDS011;9084;50.956;3.106;2024-02-23T13:37:51;1.47;;;0.60;;
17917;SDS011;9084;50.956;3.106;2024-02-23T13:40:17;2.37;;;0.97;;
17917;SDS011;9084;50.956;3.106;2024-02-23T13:42:43;2.77;;;1.10;;
17917;SDS011;9084;50.956;3.106;2024-02-23T13:45:15;2.07;;;1.00;;
17917;SDS011;9084;50.956;3.106;2024-02-23T13:47:44;2.83;;;0.80;;
17917;SDS011;9084;50.956;3.106;2024-02-23T13:50:23;1.40;;;0.50;;
17917;SDS011;9084;50.956;3.106;2024-02-23T13:52:49;2.23;;;0.83;;
17917;SDS011;9084;50.956;3.106;2024-02-23T13:55:15;2.20;;;0.87;;
17917;SDS011;9084;50.956;3.106;2024-02-23T13:57:45;2.47;;;0.90;;
17917;SDS011;9084;50.956;3.106;2024-02-23T14:00:11;1.35;;;0.55;;
17917;SDS011;9084;50.956;3.106;2024-02-23T14:02:40;1.07;;;0.53;;
17917;SDS011;9084;50.956;3.106;2024-02-23T14:05:06;1.52;;;0.40;;
17917;SDS011;9084;50.956;3.106;2024-02-23T14:07:32;1.13;;;0.60;;
17917;SDS011;9084;50.956;3.106;2024-02-23T14:09:58;1.57;;;0.60;;
17917;SDS011;9084;50.956;3.106;2024-02-23T14:12:24;2.03;;;0.47;;
17917;SDS011;9084;50.956;3.106;2024-02-23T14:14:50;1.58;;;0.30;;
17917;SDS011;9084;50.956;3.106;2024-02-23T14:17:18;1.13;;;0.40;;
17917;SDS011;9084;50.956;3.106;2024-02-23T14:19:44;0.40;;;0.20;;
17917;SDS011;9084;50.956;3.106;2024-02-23T14:22:10;1.85;;;0.40;;
17917;SDS011;9084;50.956;3.106;2024-02-23T14:24:35;1.10;;;0.13;;
17917;SDS011;9084;50.956;3.106;2024-02-23T14:27:01;0.93;;;0.50;;
17917;SDS011;9084;50.956;3.106;2024-02-23T14:29:27;0.67;;;0.20;;
17917;SDS011;9084;50.956;3.106;2024-02-23T14:31:53;0.67;;;0.30;;
17917;SDS011;9084;50.956;3.106;2024-02-23T14:34:18;0.75;;;0.25;;
17917;SDS011;9084;50.956;3.106;2024-02-23T14:36:46;1.27;;;0.22;;
17917;SDS011;9084;50.956;3.106;2024-02-23T14:39:11;0.98;;;0.43;;
17917;SDS011;9084;50.956;3.106;2024-02-23T14:41:38;0.43;;;0.17;;
17917;SDS011;9084;50.956;3.106;2024-02-23T14:44:04;0.45;;;0.20;;
17917;SDS011;9084;50.956;3.106;2024-02-23T14:46:30;0.73;;;0.25;;
17917;SDS011;9084;50.956;3.106;2024-02-23T14:48:55;0.40;;;0.20;;
17917;SDS011;9084;50.956;3.106;2024-02-23T14:51:21;0.35;;;0.25;;
17917;SDS011;9084;50.956;3.106;2024-02-23T14:53:47;0.52;;;0.35;;
17917;SDS011;9084;50.956;3.106;2024-02-23T14:56:12;0.52;;;0.40;;
17917;SDS011;9084;50.956;3.106;2024-02-23T14:58:38;0.63;;;0.30;;
17917;SDS011;9084;50.956;3.106;2024-02-23T15:01:04;1.33;;;0.35;;
17917;SDS011;9084;50.956;3.106;2024-02-23T15:03:33;0.68;;;0.35;;
17917;SDS011;9084;50.956;3.106;2024-02-23T15:06:02;0.45;;;0.30;;
17917;SDS011;9084;50.956;3.106;2024-02-23T15:08:28;0.60;;;0.40;;
17917;SDS011;9084;50.956;3.106;2024-02-23T15:10:53;1.45;;;0.60;;
17917;SDS011;9084;50.956;3.106;2024-02-23T15:13:20;1.95;;;0.70;;
17917;SDS011;9084;50.956;3.106;2024-02-23T15:15:46;0.95;;;0.60;;
17917;SDS011;9084;50.956;3.106;2024-02-23T15:18:11;1.05;;;0.50;;
17917;SDS011;9084;50.956;3.106;2024-02-23T15:20:41;0.43;;;0.40;;